Terminal Aerodrome Forecast
Issued by NWS

Home | Current Version | Previous Version | Text Only | Print | Product List | Glossary On
Versions: 1 2 3 4 5 6 7 8 9 10 11 12 13 14 15 16 17 18 19 20 21 22 23 24 25 26 27 28 29 30 31 32
000
FTUS42 KCAE 301013 AAB
TAFDNL
TAF AMD
KDNL 301013Z 3010/3106 00000KT P6SM VCSH BKN050 OVC100
      TEMPO 3011/3012 6SM -RA BR
     FM301200 11005KT 6SM -RA BR BKN050 OVC100
     FM301500 11006KT P6SM VCSH BKN035 OVC080
     FM301900 11006KT P6SM VCSH BKN025 OVC045
     FM310300 VRB04KT 5SM BR OVC004=

USA.gov is the U.S. government's official web portal to all federal, state and local government web resources and services.